M I D A S
Marine Information and Data Acquisition System
Tripno 1287 of the Zeeleeuw from 2007-06-15 06:48:23 to 2007-06-15 14:46:10
Back to CruiseResearch ActivitiesStationsMapUnderway DataData graphs

EquipmentUnitsComment
TimeDGPSUTC
LatitudeDGPSDM.mWGS84
LongitudeDGPSDM.mWGS84
HeadingGyrodeg 
SOGDGPSknotsSpeed over ground
COGDGPSdegCourse over ground
DepthEcho soundermeters200 kHz
Missing or incorrect values are displayed as -999
Navigation data collected by the RV Zeeleeuw from 2007-06-15 06:51:28 to 2007-06-15 14:56:51
                                                                                    Next 1000 lines
Time Latitude Longitude Heading SOG COG Depth
2007-06-15 06:51:38 51°13.599 2°56.091 114.3 0.8 292 6.9
2007-06-15 06:51:43 51°13.599 2°56.089 114 1 293 5.3
2007-06-15 06:51:48 51°13.6 2°56.086 114 1.3 293 6.9
2007-06-15 06:51:53 51°13.601 2°56.083 114 1.6 293 5.3
2007-06-15 06:51:58 51°13.602 2°56.079 114 1.9 294 7.1
2007-06-15 06:52:03 51°13.603 2°56.075 114 2.1 293 -999
2007-06-15 06:52:08 51°13.604 2°56.07 114 2.4 293 -999
2007-06-15 06:52:13 51°13.606 2°56.064 114 2.9 292 -999
2007-06-15 06:52:18 51°13.607 2°56.058 114.1 3.2 292 -999
2007-06-15 06:52:23 51°13.608 2°56.051 114.4 3.5 292 -999
2007-06-15 06:52:28 51°13.61 2°56.043 114.6 3.7 292 -999
2007-06-15 06:52:33 51°13.612 2°56.035 115.1 3.9 292 -999
2007-06-15 06:52:39 51°13.615 2°56.025 115.7 4.1 292 -999
2007-06-15 06:52:43 51°13.616 2°56.018 116.6 4.3 294 -999
2007-06-15 06:52:48 51°13.619 2°56.009 117.8 4.5 295 -999
2007-06-15 06:52:53 51°13.622 2°56 119.2 4.7 296 -999
2007-06-15 06:52:58 51°13.625 2°55.99 120.4 4.8 297 -999
2007-06-15 06:53:04 51°13.629 2°55.979 121.5 5 299 -999
2007-06-15 06:53:08 51°13.632 2°55.971 122.5 5.2 299 -999
2007-06-15 06:53:13 51°13.636 2°55.961 123.3 5.3 301 -999
2007-06-15 06:53:18 51°13.64 2°55.95 124.2 5.4 301 -999
2007-06-15 06:53:23 51°13.644 2°55.94 124.7 5.5 302 -999
2007-06-15 06:53:28 51°13.648 2°55.93 124.8 5.5 302 -999
2007-06-15 06:53:33 51°13.653 2°55.92 124.8 5.4 303 -999
2007-06-15 06:53:38 51°13.656 2°55.91 124.3 5.2 301 -999
2007-06-15 06:53:43 51°13.66 2°55.901 123.6 5 302 -999
2007-06-15 06:53:48 51°13.663 2°55.892 122.6 4.8 301 -999
2007-06-15 06:53:53 51°13.666 2°55.883 121.5 4.6 300 -999
2007-06-15 06:53:58 51°13.669 2°55.874 120.2 4.4 299 -999
2007-06-15 06:54:03 51°13.672 2°55.866 118.5 4.2 297 -999
2007-06-15 06:54:08 51°13.675 2°55.858 117.2 4.1 297 9.6
2007-06-15 06:54:13 51°13.677 2°55.851 115.7 3.9 295 9.6
2007-06-15 06:54:18 51°13.679 2°55.843 114.2 3.7 294 9.6
2007-06-15 06:54:23 51°13.681 2°55.836 112.4 3.5 292 9.6
2007-06-15 06:54:28 51°13.683 2°55.829 110.9 3.4 291 9.6
2007-06-15 06:54:33 51°13.685 2°55.822 108.8 3.2 290 9.6
2007-06-15 06:54:38 51°13.686 2°55.816 106.9 3.1 289 9.7
2007-06-15 06:54:43 51°13.687 2°55.81 105.2 3 288 9.7
2007-06-15 06:54:48 51°13.689 2°55.804 103.7 2.9 287 9.7
2007-06-15 06:54:53 51°13.69 2°55.798 102.1 2.8 286 9.9
2007-06-15 06:54:58 51°13.691 2°55.792 100.3 2.7 285 9.9
2007-06-15 06:55:03 51°13.691 2°55.787 99 2.5 285 10.1
2007-06-15 06:55:08 51°13.692 2°55.781 97.9 2.4 284 10
2007-06-15 06:55:13 51°13.693 2°55.776 96.1 2.3 283 10.2
2007-06-15 06:55:18 51°13.694 2°55.772 94.9 2.2 282 10
2007-06-15 06:55:23 51°13.694 2°55.767 93.6 2.1 281 10.2
2007-06-15 06:55:28 51°13.695 2°55.763 91.8 2 281 10.3
2007-06-15 06:55:33 51°13.695 2°55.759 90.6 1.9 279 10.3
2007-06-15 06:55:38 51°13.695 2°55.755 89.1 1.8 279 10.3
2007-06-15 06:55:43 51°13.695 2°55.751 87.6 1.8 277 10.4
2007-06-15 06:55:48 51°13.696 2°55.747 86.5 1.7 277 10.5
2007-06-15 06:55:53 51°13.696 2°55.743 85.5 1.7 275 10.3
2007-06-15 06:55:58 51°13.696 2°55.74 84.2 1.7 274 10.3
2007-06-15 06:56:03 51°13.696 2°55.736 83.2 1.6 272 10.2
2007-06-15 06:56:08 51°13.696 2°55.732 82.3 1.6 271 10.5
2007-06-15 06:56:13 51°13.696 2°55.729 81.2 1.5 270 10.8
2007-06-15 06:56:18 51°13.696 2°55.726 80 1.4 270 10.6
2007-06-15 06:56:23 51°13.696 2°55.723 78.6 1.3 267 10.7
2007-06-15 06:56:28 51°13.696 2°55.721 77.1 1.2 266 11.1
2007-06-15 06:56:33 51°13.696 2°55.718 75.6 1 266 11.1
2007-06-15 06:56:38 51°13.696 2°55.716 74 0.8 267 11.1
2007-06-15 06:56:43 51°13.696 2°55.715 72.1 0.6 270 11.1
2007-06-15 06:56:48 51°13.696 2°55.714 70.1 0.5 271 11.2
2007-06-15 06:56:53 51°13.696 2°55.713 67.6 0.4 283 11.2
2007-06-15 06:56:58 51°13.696 2°55.713 64.9 0.2 295 11.4
2007-06-15 06:57:03 51°13.696 2°55.712 61.9 0.3 332 11.6
2007-06-15 06:57:08 51°13.697 2°55.713 59.9 0.3 15 12.4
2007-06-15 06:57:13 51°13.697 2°55.713 57.3 0.6 24 12.6
2007-06-15 06:57:18 51°13.698 2°55.714 53.9 0.7 29 12.6
2007-06-15 06:57:23 51°13.7 2°55.715 48.9 1 27 12.7
2007-06-15 06:57:28 51°13.701 2°55.716 45.4 1.1 27 12.9
2007-06-15 06:57:33 51°13.703 2°55.717 40.6 1.3 24 12.7
2007-06-15 06:57:38 51°13.705 2°55.718 36.1 1.5 21 12.6
2007-06-15 06:57:43 51°13.707 2°55.719 31.2 1.9 15 11.8
2007-06-15 06:57:48 51°13.71 2°55.72 25.9 2.3 9 10.9
2007-06-15 06:57:53 51°13.714 2°55.721 19.7 2.9 6 10.9
2007-06-15 06:57:58 51°13.719 2°55.721 12.5 3.5 356 10.8
2007-06-15 06:58:03 51°13.724 2°55.719 4.2 3.6 351 10.7
2007-06-15 06:58:08 51°13.729 2°55.717 355 3.6 344 10.4
2007-06-15 06:58:13 51°13.734 2°55.715 350.4 3.8 342 10.3
2007-06-15 06:58:18 51°13.739 2°55.711 345.9 4.1 336 10.3
2007-06-15 06:58:23 51°13.745 2°55.707 341.6 4.3 334 10
2007-06-15 06:58:28 51°13.75 2°55.702 338.5 4.5 333 10
2007-06-15 06:58:33 51°13.756 2°55.697 336.3 4.8 332 10
2007-06-15 06:58:38 51°13.762 2°55.692 335.6 5.2 332 10
2007-06-15 06:58:43 51°13.769 2°55.686 335.4 5.7 332 10
2007-06-15 06:58:48 51°13.777 2°55.68 335.4 6 331 9.9
2007-06-15 06:58:53 51°13.785 2°55.673 335.4 6.4 332 10
2007-06-15 06:58:58 51°13.793 2°55.666 335.8 6.8 333 10
2007-06-15 06:59:03 51°13.801 2°55.659 336.6 7.2 334 10
2007-06-15 06:59:08 51°13.811 2°55.652 337.5 7.5 334 10
2007-06-15 06:59:13 51°13.821 2°55.645 338.2 7.8 335 9.9
2007-06-15 06:59:18 51°13.831 2°55.638 338.7 8.1 335 10
2007-06-15 06:59:23 51°13.841 2°55.63 338.6 8.4 335 9.8
2007-06-15 06:59:28 51°13.852 2°55.621 338.6 8.5 334 9.8
2007-06-15 06:59:33 51°13.863 2°55.613 338.5 6.2 335 9.8
2007-06-15 06:59:38 51°13.874 2°55.604 338.3 9 334 9.8
2007-06-15 06:59:43 51°13.885 2°55.596 338.2 9.2 335 9.7
2007-06-15 06:59:48 51°13.897 2°55.587 338.2 9.3 336 9.8
2007-06-15 06:59:53 51°13.908 2°55.578 338.7 9.3 334 9.9
2007-06-15 06:59:58 51°13.92 2°55.569 338.8 9.3 335 9.9
2007-06-15 07:00:03 51°13.932 2°55.56 338.9 9.4 335 9.9
2007-06-15 07:00:08 51°13.944 2°55.552 339.2 9.4 335 9.8
2007-06-15 07:00:13 51°13.956 2°55.543 339.5 9.5 335 9.8
2007-06-15 07:00:18 51°13.968 2°55.534 339.5 9.5 336 9.8
2007-06-15 07:00:23 51°13.98 2°55.526 340 9.5 337 9.8
2007-06-15 07:00:28 51°13.992 2°55.518 340.7 9.6 337 9.9
2007-06-15 07:00:33 51°14.004 2°55.509 340.9 9.7 337 9.9
2007-06-15 07:00:38 51°14.017 2°55.5 340.9 9.7 337 9.9
2007-06-15 07:00:43 51°14.029 2°55.492 340.6 9.7 336 9.8
2007-06-15 07:00:48 51°14.042 2°55.484 340.6 9.8 337 9.8
2007-06-15 07:00:53 51°14.054 2°55.475 340.9 9.8 336 9.8
2007-06-15 07:00:58 51°14.067 2°55.466 340.4 9.8 335 9.9
2007-06-15 07:01:03 51°14.079 2°55.457 339.6 9.9 335 9.8
2007-06-15 07:01:08 51°14.091 2°55.447 339.2 9.9 334 9.8
2007-06-15 07:01:13 51°14.104 2°55.437 338.6 9.9 334 9.8
2007-06-15 07:01:18 51°14.116 2°55.428 338.2 9.9 333 9.9
2007-06-15 07:01:23 51°14.128 2°55.418 337.6 9.9 334 10
2007-06-15 07:01:28 51°14.14 2°55.408 337.7 9.9 333 10
2007-06-15 07:01:33 51°14.152 2°55.397 337.5 9.9 331 9.9
2007-06-15 07:01:39 51°14.167 2°55.384 336.2 9.9 330 9.9
2007-06-15 07:01:43 51°14.176 2°55.375 334.8 9.8 328 9.9
2007-06-15 07:01:48 51°14.187 2°55.363 333.2 9.8 327 9.9
2007-06-15 07:01:53 51°14.198 2°55.351 331.6 9.8 325 9.9
2007-06-15 07:01:58 51°14.209 2°55.338 329.8 9.8 323 9.9
2007-06-15 07:02:03 51°14.22 2°55.325 328.1 9.8 322 9.9
2007-06-15 07:02:08 51°14.231 2°55.311 326.7 9.8 321 9.9
2007-06-15 07:02:13 51°14.241 2°55.297 325.4 9.9 319 9.9
2007-06-15 07:02:18 51°14.251 2°55.282 323.5 10.1 317 10
2007-06-15 07:02:23 51°14.261 2°55.266 321.2 10.4 315 10
2007-06-15 07:02:28 51°14.271 2°55.249 320 10.6 316 9.8
2007-06-15 07:02:33 51°14.282 2°55.232 319.3 10.8 313 9.8
2007-06-15 07:02:38 51°14.292 2°55.214 317.9 11 314 9.9
2007-06-15 07:02:43 51°14.303 2°55.196 317.6 11.1 314 10
2007-06-15 07:02:48 51°14.314 2°55.179 318 11.2 314 10
2007-06-15 07:02:53 51°14.325 2°55.16 318 11.3 313 9.7
2007-06-15 07:02:58 51°14.335 2°55.142 317.4 11.3 311 9.7
2007-06-15 07:03:03 51°14.345 2°55.122 316.4 11.4 308 9.6
2007-06-15 07:03:08 51°14.354 2°55.101 313.4 11.6 305 10.1
2007-06-15 07:03:13 51°14.363 2°55.079 309 11.7 303 9.7
2007-06-15 07:03:18 51°14.372 2°55.057 306.4 11.8 304 9.7
2007-06-15 07:03:23 51°14.382 2°55.037 306.6 11.8 310 9.6
2007-06-15 07:03:28 51°14.394 2°55.017 310.9 12 314 9.5
2007-06-15 07:03:33 51°14.406 2°54.998 316.4 12.3 315 9.6
2007-06-15 07:03:38 51°14.418 2°54.979 318.7 12.5 317 9.6
2007-06-15 07:03:43 51°14.431 2°54.96 320.8 12.6 318 9.5
2007-06-15 07:03:48 51°14.444 2°54.941 322.7 12.7 318 9.5
2007-06-15 07:03:53 51°14.457 2°54.922 323.5 12.8 318 9.3
2007-06-15 07:03:58 51°14.471 2°54.904 324 12.9 318 8.8
2007-06-15 07:04:03 51°14.484 2°54.884 324.6 12.9 316 8.7
2007-06-15 07:04:08 51°14.496 2°54.864 324.4 12.9 316 8.4
2007-06-15 07:04:13 51°14.51 2°54.845 324.1 12.8 318 8.5
2007-06-15 07:04:18 51°14.523 2°54.827 325.1 12.7 319 8.3
2007-06-15 07:04:23 51°14.537 2°54.81 327.3 12.6 322 8.4
2007-06-15 07:04:28 51°14.551 2°54.793 329.4 12.6 323 8.5
2007-06-15 07:04:33 51°14.565 2°54.777 330.8 12.6 324 8
2007-06-15 07:04:38 51°14.579 2°54.76 331.8 12.7 324 8
2007-06-15 07:04:43 51°14.593 2°54.744 332.4 12.7 324 8
2007-06-15 07:04:48 51°14.607 2°54.727 332.6 12.7 323 8.2
2007-06-15 07:04:53 51°14.621 2°54.709 331.8 12.8 321 8.2
2007-06-15 07:04:58 51°14.635 2°54.691 330.2 12.8 319 8.1
2007-06-15 07:05:03 51°14.648 2°54.672 328.2 12.9 319 8.1
2007-06-15 07:05:08 51°14.662 2°54.653 327.4 12.9 318 8
2007-06-15 07:05:13 51°14.675 2°54.633 327 12.9 318 8.3
2007-06-15 07:05:18 51°14.689 2°54.614 326.3 13 318 8.3
2007-06-15 07:05:23 51°14.702 2°54.596 326.4 13 319 8
2007-06-15 07:05:28 51°14.716 2°54.577 326.9 13 320 8.1
2007-06-15 07:05:33 51°14.73 2°54.56 328.2 13 322 8.3
2007-06-15 07:05:38 51°14.745 2°54.543 329.9 12.9 324 8.1
2007-06-15 07:05:43 51°14.759 2°54.526 331.3 12.7 325 8.2
2007-06-15 07:05:48 51°14.774 2°54.51 332.3 12.7 325 8.2
2007-06-15 07:05:53 51°14.788 2°54.495 333.1 12.6 327 8.3
2007-06-15 07:05:58 51°14.803 2°54.48 334.4 12.7 328 8.2
2007-06-15 07:06:03 51°14.819 2°54.465 335.3 12.7 329 8
2007-06-15 07:06:08 51°14.834 2°54.451 336.3 12.7 330 8.2
2007-06-15 07:06:13 51°14.849 2°54.437 337.2 12.6 330 7.9
2007-06-15 07:06:18 51°14.864 2°54.423 338 12.6 330 8.4
2007-06-15 07:06:23 51°14.879 2°54.409 338.3 12.8 330 8.2
2007-06-15 07:06:28 51°14.895 2°54.395 338.5 12.7 329 8
2007-06-15 07:06:33 51°14.91 2°54.38 337.9 12.7 328 7.7
2007-06-15 07:06:38 51°14.924 2°54.365 337.6 12.5 328 7.5
2007-06-15 07:06:43 51°14.939 2°54.35 337.1 12.4 327 7.5
2007-06-15 07:06:48 51°14.953 2°54.335 336.2 12.4 327 7.5
2007-06-15 07:06:53 51°14.967 2°54.32 335.8 12.3 326 7.1
2007-06-15 07:06:58 51°14.981 2°54.304 334.9 12.2 326 7.2
2007-06-15 07:07:03 51°14.995 2°54.288 334.7 12.3 324 7.3
2007-06-15 07:07:08 51°15.009 2°54.272 333.9 12.3 324 -999
2007-06-15 07:07:13 51°15.023 2°54.254 333.1 12.3 322 7.2
2007-06-15 07:07:18 51°15.036 2°54.238 332.1 12.4 322 7.3
2007-06-15 07:07:23 51°15.049 2°54.221 331.6 12.3 321 7.2
2007-06-15 07:07:28 51°15.063 2°54.204 330.9 12.3 322 7.2
2007-06-15 07:07:33 51°15.077 2°54.188 331 12.3 325 7.5
2007-06-15 07:07:38 51°15.091 2°54.173 333 12.5 327 7.4
2007-06-15 07:07:43 51°15.106 2°54.158 334.6 12.5 328 7.4
2007-06-15 07:07:48 51°15.122 2°54.144 336 12.5 331 7.4
2007-06-15 07:07:53 51°15.137 2°54.132 338.3 12.5 333 7.4
2007-06-15 07:07:58 51°15.152 2°54.12 340.7 12.5 334 7.4
2007-06-15 07:08:03 51°15.168 2°54.108 342.5 12.5 335 7.6
2007-06-15 07:08:08 51°15.184 2°54.098 343.4 12.4 337 7.8
2007-06-15 07:08:13 51°15.199 2°54.086 344.1 12.4 335 7.5
2007-06-15 07:08:18 51°15.215 2°54.075 344.5 12.5 334 7.6
2007-06-15 07:08:23 51°15.23 2°54.063 344.1 12.6 335 8
2007-06-15 07:08:28 51°15.246 2°54.05 343.5 12.6 333 7.9
2007-06-15 07:08:33 51°15.261 2°54.037 342.1 12.6 332 7.7
2007-06-15 07:08:38 51°15.276 2°54.022 340.7 12.6 330 8.1
2007-06-15 07:08:43 51°15.292 2°54.009 339.3 12.7 330 8
2007-06-15 07:08:48 51°15.307 2°53.994 338.7 12.6 329 8.2
2007-06-15 07:08:53 51°15.322 2°53.98 338.2 12.8 329 8.2
2007-06-15 07:08:58 51°15.337 2°53.966 337.8 12.8 330 8.2
2007-06-15 07:09:03 51°15.353 2°53.952 338.1 12.8 329 8.2
2007-06-15 07:09:08 51°15.368 2°53.938 338.5 12.8 331 8.1
2007-06-15 07:09:13 51°15.383 2°53.924 338.8 12.8 330 8.3
2007-06-15 07:09:18 51°15.399 2°53.91 338.9 12.8 331 8.4
2007-06-15 07:09:23 51°15.414 2°53.895 339.6 12.8 330 8.3
2007-06-15 07:09:28 51°15.429 2°53.882 339.5 12.8 331 8.5
2007-06-15 07:09:33 51°15.445 2°53.868 339.6 12.7 330 8.6
2007-06-15 07:09:38 51°15.46 2°53.854 339.7 12.8 330 8.7
2007-06-15 07:09:43 51°15.475 2°53.839 339.5 12.7 330 8.8
2007-06-15 07:09:48 51°15.491 2°53.826 339.6 12.8 330 8.9
2007-06-15 07:09:53 51°15.506 2°53.811 339.5 12.7 330 8.7
2007-06-15 07:09:58 51°15.522 2°53.798 339 12.7 330 8.9
2007-06-15 07:10:03 51°15.537 2°53.783 339.4 12.8 329 9
2007-06-15 07:10:08 51°15.552 2°53.769 338.8 12.7 330 9.1
2007-06-15 07:10:13 51°15.567 2°53.754 339.3 12.6 330 9.2
2007-06-15 07:10:18 51°15.583 2°53.741 339.5 12.8 330 9.2
2007-06-15 07:10:23 51°15.598 2°53.726 339.7 12.7 330 9
2007-06-15 07:10:28 51°15.613 2°53.712 339.4 12.7 331 8.9
2007-06-15 07:10:33 51°15.629 2°53.699 340.2 12.8 330 9.2
2007-06-15 07:10:38 51°15.644 2°53.684 339.8 12.6 331 9.1
2007-06-15 07:10:43 51°15.66 2°53.67 340.2 12.6 330 9.2
2007-06-15 07:10:48 51°15.675 2°53.656 339.9 12.6 330 9.3
2007-06-15 07:10:53 51°15.69 2°53.642 339.6 12.6 330 9.6
2007-06-15 07:10:58 51°15.705 2°53.629 339.2 12.7 331 9.6
2007-06-15 07:11:03 51°15.72 2°53.615 339.5 12.7 330 9.5
2007-06-15 07:11:08 51°15.736 2°53.601 339.7 12.7 331 9.5
2007-06-15 07:11:13 51°15.751 2°53.587 339.9 12.8 330 9.5
2007-06-15 07:11:18 51°15.766 2°53.573 339.9 12.7 331 9.5
2007-06-15 07:11:23 51°15.781 2°53.559 339.5 12.6 330 9.6
2007-06-15 07:11:28 51°15.797 2°53.546 339.5 12.6 332 9.8
2007-06-15 07:11:33 51°15.812 2°53.533 339.5 12.6 332 9.6
2007-06-15 07:11:38 51°15.828 2°53.52 340.2 12.6 332 9.7
2007-06-15 07:11:43 51°15.843 2°53.506 340.2 12.7 332 9.9
2007-06-15 07:11:48 51°15.858 2°53.492 340.1 12.5 330 9.7
2007-06-15 07:11:53 51°15.873 2°53.478 339.5 12.5 328 10.1
2007-06-15 07:11:58 51°15.888 2°53.463 338.6 12.6 329 10
2007-06-15 07:12:03 51°15.903 2°53.45 338.1 12.5 330 10
2007-06-15 07:12:08 51°15.918 2°53.435 338.6 12.6 328 9.9
2007-06-15 07:12:13 51°15.933 2°53.421 338.7 12.5 331 10
2007-06-15 07:12:18 51°15.948 2°53.408 339.8 12.5 330 10.2
2007-06-15 07:12:23 51°15.963 2°53.394 340.1 12.5 331 10.1
2007-06-15 07:12:28 51°15.978 2°53.381 339.8 12.5 331 10.2
2007-06-15 07:12:33 51°15.993 2°53.367 339.7 12.5 330 10.3
2007-06-15 07:12:38 51°16.008 2°53.353 339.7 12.5 329 10.2
2007-06-15 07:12:43 51°16.023 2°53.339 339.1 12.6 329 10.1
2007-06-15 07:12:48 51°16.038 2°53.325 338.8 12.5 329 10.2
2007-06-15 07:12:53 51°16.052 2°53.31 338.6 12.5 328 10.4
2007-06-15 07:12:58 51°16.067 2°53.297 338.4 12.6 330 10.5
2007-06-15 07:13:03 51°16.083 2°53.283 338.9 12.5 331 10.4
2007-06-15 07:13:08 51°16.098 2°53.27 340.4 12.4 331 10.3
2007-06-15 07:13:13 51°16.113 2°53.257 341.1 12.5 332 10.4
2007-06-15 07:13:18 51°16.128 2°53.244 341.7 12.5 331 10.5
2007-06-15 07:13:23 51°16.143 2°53.23 341.9 12.4 330 10.4
2007-06-15 07:13:28 51°16.158 2°53.217 341.5 12.5 331 10.6
2007-06-15 07:13:33 51°16.173 2°53.204 341.4 12.5 331 10.4
2007-06-15 07:13:38 51°16.189 2°53.192 341.6 12.6 332 10.5
2007-06-15 07:13:43 51°16.204 2°53.179 342.5 12.5 332 10.5
2007-06-15 07:13:48 51°16.219 2°53.166 342.5 12.5 333 10.5
2007-06-15 07:13:53 51°16.235 2°53.154 342.8 12.5 333 10.4
2007-06-15 07:13:58 51°16.25 2°53.141 342.8 12.4 333 10.2
2007-06-15 07:14:03 51°16.265 2°53.129 343.1 12.5 333 10.3
2007-06-15 07:14:08 51°16.281 2°53.117 343 12.5 335 10.5
2007-06-15 07:14:13 51°16.297 2°53.105 343.4 12.4 335 10.5
2007-06-15 07:14:18 51°16.313 2°53.094 343.9 12.5 336 10.7
2007-06-15 07:14:23 51°16.328 2°53.082 344.2 12.4 335 10.3
2007-06-15 07:14:28 51°16.344 2°53.071 344.1 12.4 336 10.5
2007-06-15 07:14:33 51°16.359 2°53.059 344.2 12.4 335 10.6
2007-06-15 07:14:38 51°16.375 2°53.047 343.8 12.4 335 10.8
2007-06-15 07:14:43 51°16.391 2°53.035 343.3 12.5 335 10.7
2007-06-15 07:14:48 51°16.406 2°53.024 343.2 12.5 335 10.7
2007-06-15 07:14:53 51°16.422 2°53.012 343.3 12.5 336 10.7
2007-06-15 07:14:58 51°16.439 2°53.001 343.6 12.4 336 10.5
2007-06-15 07:15:03 51°16.454 2°52.99 343.9 12.5 336 10.6
2007-06-15 07:15:08 51°16.47 2°52.978 343.8 12.5 336 10.6
2007-06-15 07:15:13 51°16.486 2°52.967 343.7 12.4 336 10.4
2007-06-15 07:15:18 51°16.502 2°52.955 343.6 12.4 336 10.6
2007-06-15 07:15:23 51°16.517 2°52.944 343.3 12.4 336 10.5
2007-06-15 07:15:28 51°16.533 2°52.933 343.3 12.5 336 10.5
2007-06-15 07:15:33 51°16.549 2°52.922 343.6 12.4 336 10.3
2007-06-15 07:15:38 51°16.565 2°52.91 343.5 12.4 336 10.5
2007-06-15 07:15:43 51°16.58 2°52.899 343.9 12.4 336 10.4
2007-06-15 07:15:48 51°16.596 2°52.888 343.5 12.5 336 10
2007-06-15 07:15:53 51°16.612 2°52.876 343.3 12.4 335 10
2007-06-15 07:15:58 51°16.627 2°52.865 343.2 12.4 336 10.2
2007-06-15 07:16:03 51°16.643 2°52.854 342.8 12.4 336 10.2
2007-06-15 07:16:08 51°16.659 2°52.844 342.9 12.2 338 10
2007-06-15 07:16:13 51°16.674 2°52.833 344.2 12.2 339 10.2
2007-06-15 07:16:18 51°16.69 2°52.824 345.6 12.3 339 9.9
2007-06-15 07:16:23 51°16.706 2°52.815 346.4 12.3 341 9.8
2007-06-15 07:16:28 51°16.722 2°52.806 347.6 12.3 341 9.5
2007-06-15 07:16:33 51°16.738 2°52.797 348.3 12.2 340 9.4
2007-06-15 07:16:38 51°16.754 2°52.788 348.1 12.2 341 9.1
2007-06-15 07:16:43 51°16.77 2°52.779 348.4 12.2 341 8.8
2007-06-15 07:16:48 51°16.786 2°52.77 348.6 12 341 8.5
2007-06-15 07:16:53 51°16.802 2°52.762 349.1 12 341 8.6
2007-06-15 07:16:58 51°16.817 2°52.754 348.9 11.9 342 8.6
2007-06-15 07:17:03 51°16.833 2°52.745 349.5 11.9 340 8.4
2007-06-15 07:17:08 51°16.848 2°52.736 348.5 12 340 8.5
2007-06-15 07:17:13 51°16.864 2°52.727 347.8 12 341 8.3
2007-06-15 07:17:18 51°16.88 2°52.717 348.2 12.1 339 8.2
2007-06-15 07:17:23 51°16.895 2°52.709 347.5 12 341 8.1
2007-06-15 07:17:28 51°16.911 2°52.699 347.8 11.9 338 7.9
2007-06-15 07:17:33 51°16.926 2°52.69 347.5 11.9 340 8.3
2007-06-15 07:17:38 51°16.942 2°52.681 347.6 12 340 8.5
2007-06-15 07:17:43 51°16.958 2°52.672 347.7 12.1 340 8.5
2007-06-15 07:17:48 51°16.974 2°52.663 348.5 12.1 341 8.5
2007-06-15 07:17:53 51°16.989 2°52.654 348.7 12.1 340 8.7
2007-06-15 07:17:58 51°17.005 2°52.645 348.5 12.2 340 8.9
2007-06-15 07:18:03 51°17.021 2°52.635 348.6 12.2 339 8.8
2007-06-15 07:18:08 51°17.037 2°52.627 348.4 12.2 342 8.8
2007-06-15 07:18:13 51°17.053 2°52.617 348.8 12.2 339 8.5
2007-06-15 07:18:18 51°17.069 2°52.61 348.6 12 343 8.5
2007-06-15 07:18:23 51°17.085 2°52.599 349.4 12.1 339 8.5
2007-06-15 07:18:28 51°17.1 2°52.592 348.4 12 342 8.5
2007-06-15 07:18:33 51°17.116 2°52.583 349.1 11.9 341 8.4
2007-06-15 07:18:38 51°17.132 2°52.576 349.4 11.9 344 8.4
2007-06-15 07:18:43 51°17.148 2°52.569 350.7 12 346 8.4
2007-06-15 07:18:48 51°17.164 2°52.562 352.7 12 344 8.2
2007-06-15 07:18:53 51°17.18 2°52.557 353.1 11.9 348 8.6
2007-06-15 07:18:58 51°17.196 2°52.55 354.5 11.9 347 8.7
2007-06-15 07:19:03 51°17.213 2°52.547 355.3 11.9 352 8.7
2007-06-15 07:19:08 51°17.229 2°52.543 358 11.9 351 8.6
2007-06-15 07:19:13 51°17.246 2°52.541 359.8 11.9 355 8.7
2007-06-15 07:19:18 51°17.262 2°52.539 1.4 12 356 8.8
2007-06-15 07:19:23 51°17.279 2°52.537 3 11.8 357 8.8
2007-06-15 07:19:28 51°17.295 2°52.536 3.7 11.6 357 8.9
2007-06-15 07:19:33 51°17.311 2°52.535 4.2 11.7 357 9.2
2007-06-15 07:19:38 51°17.328 2°52.533 4.6 11.8 356 8.9
2007-06-15 07:19:43 51°17.344 2°52.531 4.3 11.8 356 8.8
2007-06-15 07:19:48 51°17.36 2°52.529 3.9 11.8 356 9
2007-06-15 07:19:53 51°17.377 2°52.527 3.4 11.8 355 9.2
2007-06-15 07:19:58 51°17.393 2°52.524 3.1 11.9 355 9
2007-06-15 07:20:03 51°17.41 2°52.523 3 11.8 356 9
2007-06-15 07:20:08 51°17.426 2°52.52 3.2 12 355 9
2007-06-15 07:20:13 51°17.442 2°52.518 2.9 11.8 354 9.1
2007-06-15 07:20:18 51°17.459 2°52.515 2.4 11.8 354 9.2
2007-06-15 07:20:23 51°17.475 2°52.513 2.3 11.9 355 9.1
2007-06-15 07:20:28 51°17.492 2°52.51 2.3 11.9 355 9.2
2007-06-15 07:20:33 51°17.508 2°52.508 3 11.9 355 9.2
2007-06-15 07:20:38 51°17.525 2°52.506 3.2 11.8 356 9.3
2007-06-15 07:20:43 51°17.541 2°52.504 3.8 11.8 355 9.2
2007-06-15 07:20:48 51°17.557 2°52.502 3.6 11.7 355 9.3
2007-06-15 07:20:53 51°17.574 2°52.5 3.5 11.8 355 9.4
2007-06-15 07:20:58 51°17.59 2°52.498 3.1 11.8 355 9.3
2007-06-15 07:21:03 51°17.607 2°52.494 2.8 11.9 353 9.2
2007-06-15 07:21:08 51°17.623 2°52.492 2.1 11.8 355 9.1
2007-06-15 07:21:13 51°17.639 2°52.489 2.6 11.8 353 9.2
2007-06-15 07:21:18 51°17.656 2°52.487 2.2 11.9 356 9.1
2007-06-15 07:21:23 51°17.672 2°52.484 2.7 11.8 353 9.1
2007-06-15 07:21:28 51°17.688 2°52.482 2.2 11.8 356 9.3
2007-06-15 07:21:33 51°17.705 2°52.479 2.9 11.9 354 9.2
2007-06-15 07:21:38 51°17.721 2°52.478 2.8 11.8 356 9.2
2007-06-15 07:21:43 51°17.737 2°52.474 2.8 11.8 354 9.2
2007-06-15 07:21:48 51°17.754 2°52.472 2.5 11.8 355 9.3
2007-06-15 07:21:53 51°17.77 2°52.47 2.8 11.8 355 9.2
2007-06-15 07:21:58 51°17.787 2°52.467 2.9 11.8 354 9.3
2007-06-15 07:22:03 51°17.803 2°52.465 2.5 11.8 355 9.3
2007-06-15 07:22:08 51°17.819 2°52.462 2.9 11.9 354 9
2007-06-15 07:22:13 51°17.836 2°52.46 3 11.8 356 9.2
2007-06-15 07:22:18 51°17.852 2°52.458 3.2 11.8 354 9.3
2007-06-15 07:22:23 51°17.868 2°52.456 3.6 11.9 355 9.2
2007-06-15 07:22:28 51°17.885 2°52.453 3.1 11.9 353 9.4
2007-06-15 07:22:33 51°17.901 2°52.451 2.7 11.8 356 9.5
2007-06-15 07:22:38 51°17.918 2°52.448 2.7 11.9 355 9.5
2007-06-15 07:22:43 51°17.934 2°52.447 3.2 11.9 358 9.4
2007-06-15 07:22:48 51°17.95 2°52.446 4.3 11.9 358 9.2
2007-06-15 07:22:53 51°17.967 2°52.445 5.8 11.9 359 9.4
2007-06-15 07:22:58 51°17.983 2°52.444 6.2 11.8 358 9.4
2007-06-15 07:23:03 51°18 2°52.444 6.8 11.8 -999 9.6
2007-06-15 07:23:08 51°18.016 2°52.444 7.6 12 359 9.5
2007-06-15 07:23:13 51°18.033 2°52.443 7.3 12 359 9.5
2007-06-15 07:23:18 51°18.049 2°52.443 7.2 11.8 358 9.4
2007-06-15 07:23:23 51°18.066 2°52.442 7.1 11.9 359 9.3
2007-06-15 07:23:28 51°18.082 2°52.442 6.9 11.9 359 9.4
2007-06-15 07:23:33 51°18.099 2°52.443 6.5 11.8 2 9.6
2007-06-15 07:23:38 51°18.115 2°52.447 9.6 11.7 9 9.9
2007-06-15 07:23:43 51°18.13 2°52.453 13.2 11.7 12 9.6
2007-06-15 07:23:48 51°18.146 2°52.461 17.3 11.5 19 9.2
2007-06-15 07:23:53 51°18.16 2°52.471 23.3 11.3 22 9.5
2007-06-15 07:23:58 51°18.174 2°52.482 26.3 11.3 27 10
2007-06-15 07:24:03 51°18.187 2°52.496 31.4 11.4 33 9.8
2007-06-15 07:24:08 51°18.2 2°52.511 35.6 11.4 35 9.5
2007-06-15 07:24:13 51°18.213 2°52.526 38.9 11.4 38 9.8
2007-06-15 07:24:18 51°18.225 2°52.543 41.6 11.4 40 9.9
2007-06-15 07:24:23 51°18.237 2°52.56 43.3 11.4 42 9.8
2007-06-15 07:24:28 51°18.249 2°52.577 45.1 11.5 42 9.8
2007-06-15 07:24:33 51°18.26 2°52.595 46.5 11.6 44 10
2007-06-15 07:24:38 51°18.272 2°52.613 47.2 11.6 45 9.9
2007-06-15 07:24:43 51°18.283 2°52.631 47.7 11.7 44 10
2007-06-15 07:24:48 51°18.295 2°52.649 48.1 11.8 44 10
2007-06-15 07:24:53 51°18.306 2°52.667 47.9 11.7 43 9.7
2007-06-15 07:24:58 51°18.319 2°52.684 47.3 11.8 42 10.1
2007-06-15 07:25:03 51°18.331 2°52.702 46.2 11.8 41 10
2007-06-15 07:25:08 51°18.343 2°52.719 45.6 11.8 42 9.8
2007-06-15 07:25:13 51°18.356 2°52.736 45.7 11.7 41 10.1
2007-06-15 07:25:18 51°18.368 2°52.753 45.5 11.6 42 10.1
2007-06-15 07:25:23 51°18.38 2°52.77 46.1 11.7 42 10
2007-06-15 07:25:28 51°18.392 2°52.787 45.8 11.8 40 10
2007-06-15 07:25:33 51°18.405 2°52.804 44.5 11.8 40 9.8
2007-06-15 07:25:38 51°18.418 2°52.819 43.8 11.7 38 9.8
2007-06-15 07:25:43 51°18.43 2°52.836 43.2 11.6 38 10.2
2007-06-15 07:25:48 51°18.443 2°52.851 42.8 11.7 38 10.2
2007-06-15 07:25:53 51°18.456 2°52.867 42.4 11.7 38 10.4
2007-06-15 07:25:58 51°18.469 2°52.883 42.4 11.8 37 10.1
2007-06-15 07:26:03 51°18.482 2°52.899 42.1 11.6 38 10
2007-06-15 07:26:08 51°18.495 2°52.914 42.4 11.5 39 10.3
2007-06-15 07:26:13 51°18.507 2°52.931 42.9 11.6 40 10.4
2007-06-15 07:26:18 51°18.519 2°52.947 43.4 11.6 39 10.4
2007-06-15 07:26:23 51°18.532 2°52.963 43.8 11.6 39 10.2
2007-06-15 07:26:28 51°18.545 2°52.978 43.1 11.6 35 10.1
2007-06-15 07:26:33 51°18.558 2°52.992 41.3 11.5 34 10.1
2007-06-15 07:26:38 51°18.572 2°53.006 39.6 11.5 31 10.4
2007-06-15 07:26:43 51°18.586 2°53.019 37.8 11.6 30 10.3
2007-06-15 07:26:48 51°18.6 2°53.032 36.7 11.6 29 10.4
2007-06-15 07:26:53 51°18.614 2°53.044 35.7 11.6 29 10.3
2007-06-15 07:26:58 51°18.628 2°53.057 34.8 11.6 29 10.3
2007-06-15 07:27:03 51°18.642 2°53.07 34.6 11.7 31 10.3
2007-06-15 07:27:08 51°18.655 2°53.084 36.1 11.6 32 10.3
2007-06-15 07:27:13 51°18.669 2°53.097 37 11.6 31 10.4
2007-06-15 07:27:18 51°18.683 2°53.111 37.1 11.7 33 10.5
2007-06-15 07:27:23 51°18.697 2°53.125 37.9 11.6 32 10.4
2007-06-15 07:27:28 51°18.71 2°53.139 38 11.5 34 10.6
2007-06-15 07:27:33 51°18.723 2°53.152 38.3 11.4 32 10.8
2007-06-15 07:27:38 51°18.737 2°53.167 38.1 11.5 34 10.7
2007-06-15 07:27:43 51°18.75 2°53.181 39 11.5 33 10.4
2007-06-15 07:27:48 51°18.764 2°53.195 39 11.5 33 10.3
2007-06-15 07:27:53 51°18.777 2°53.209 38.5 11.6 32 10.5
2007-06-15 07:27:58 51°18.791 2°53.222 37.9 11.6 31 10.5
2007-06-15 07:28:03 51°18.804 2°53.236 37.3 11.5 33 10.6
2007-06-15 07:28:08 51°18.818 2°53.25 37.7 11.5 33 10.6
2007-06-15 07:28:13 51°18.831 2°53.265 38.3 11.6 35 10.6
2007-06-15 07:28:18 51°18.844 2°53.278 39.1 11.6 33 10.7
2007-06-15 07:28:23 51°18.857 2°53.294 39 11.6 36 10.8
2007-06-15 07:28:28 51°18.871 2°53.307 40.3 11.6 33 10.7
2007-06-15 07:28:33 51°18.884 2°53.322 39.3 11.7 34 10.8
2007-06-15 07:28:38 51°18.898 2°53.335 38.6 11.9 32 10.6
2007-06-15 07:28:43 51°18.913 2°53.348 38 11.8 32 10.7
2007-06-15 07:28:48 51°18.927 2°53.361 37.1 11.7 31 10.5
2007-06-15 07:28:53 51°18.94 2°53.374 37.6 11.8 31 10.7
2007-06-15 07:28:58 51°18.954 2°53.388 37.5 11.7 32 10.5
2007-06-15 07:29:03 51°18.968 2°53.402 37.4 11.6 32 10.7
2007-06-15 07:29:08 51°18.981 2°53.416 37.7 11.7 33 10.9
2007-06-15 07:29:13 51°18.995 2°53.43 38.4 11.6 33 10.6
2007-06-15 07:29:18 51°19.008 2°53.443 38.8 11.6 32 10.9
2007-06-15 07:29:23 51°19.022 2°53.457 37.8 11.6 32 10.9
2007-06-15 07:29:28 51°19.036 2°53.47 37.8 11.6 32 11
2007-06-15 07:29:33 51°19.049 2°53.484 37.9 11.6 32 10.9
2007-06-15 07:29:38 51°19.063 2°53.497 37.7 11.7 32 10.9
2007-06-15 07:29:43 51°19.077 2°53.511 37.7 11.6 31 10.9
2007-06-15 07:29:48 51°19.09 2°53.524 37.2 11.5 32 10.8
2007-06-15 07:29:53 51°19.104 2°53.537 37.5 11.6 32 10.9
2007-06-15 07:29:58 51°19.118 2°53.55 37.7 11.6 31 10.9
2007-06-15 07:30:03 51°19.132 2°53.564 37.8 11.6 32 11
2007-06-15 07:30:08 51°19.146 2°53.577 38.3 11.7 30 11.1
2007-06-15 07:30:13 51°19.16 2°53.589 37.1 11.7 28 11.1
2007-06-15 07:30:18 51°19.174 2°53.601 36 11.7 28 11.2
2007-06-15 07:30:23 51°19.189 2°53.614 34.7 11.8 29 11.1
2007-06-15 07:30:28 51°19.203 2°53.625 34.2 11.7 26 11
2007-06-15 07:30:33 51°19.217 2°53.638 33.9 11.7 29 11.2
2007-06-15 07:30:38 51°19.232 2°53.649 34.4 11.8 27 11.1
2007-06-15 07:30:43 51°19.246 2°53.661 33.8 11.7 28 11
2007-06-15 07:30:48 51°19.261 2°53.672 33.8 11.7 26 11.2
2007-06-15 07:30:53 51°19.275 2°53.684 33.1 11.7 27 11.1
2007-06-15 07:30:58 51°19.289 2°53.696 33.3 11.6 27 11
2007-06-15 07:31:03 51°19.304 2°53.707 34 11.6 27 11.2
2007-06-15 07:31:08 51°19.318 2°53.718 33.7 11.7 27 11.3
2007-06-15 07:31:13 51°19.332 2°53.73 33.6 11.6 28 11.3
2007-06-15 07:31:18 51°19.347 2°53.742 34.1 11.7 26 11.3
2007-06-15 07:31:23 51°19.362 2°53.754 33.7 11.7 27 11.5
2007-06-15 07:31:28 51°19.376 2°53.765 33.3 11.6 27 11.3
2007-06-15 07:31:33 51°19.39 2°53.777 33.5 11.7 27 11.4
2007-06-15 07:31:38 51°19.405 2°53.789 33.1 11.7 28 11.5
2007-06-15 07:31:43 51°19.419 2°53.8 33.3 11.6 25 11.6
2007-06-15 07:31:48 51°19.434 2°53.812 32.6 11.6 27 11.7
2007-06-15 07:31:53 51°19.448 2°53.823 32.8 11.7 27 11.5
2007-06-15 07:31:58 51°19.462 2°53.835 33.1 11.6 27 11.4
2007-06-15 07:32:03 51°19.476 2°53.847 33.3 11.6 28 11.7
2007-06-15 07:32:08 51°19.491 2°53.859 33.8 11.7 27 11.5
2007-06-15 07:32:13 51°19.506 2°53.87 33.8 11.7 27 11.5
2007-06-15 07:32:18 51°19.52 2°53.883 33.8 11.7 29 11.5
2007-06-15 07:32:23 51°19.534 2°53.894 34.3 11.6 27 11.5
2007-06-15 07:32:28 51°19.548 2°53.906 34 11.6 28 11.6
2007-06-15 07:32:33 51°19.563 2°53.918 34.2 11.6 26 11.7
2007-06-15 07:32:38 51°19.577 2°53.93 33.7 11.7 29 11.9
2007-06-15 07:32:43 51°19.591 2°53.942 34.4 11.7 27 11.7
2007-06-15 07:32:48 51°19.606 2°53.954 34.2 11.7 28 11.8
2007-06-15 07:32:53 51°19.62 2°53.966 34.1 11.7 26 11.8
2007-06-15 07:32:58 51°19.635 2°53.978 33.5 11.6 27 11.9
2007-06-15 07:33:03 51°19.649 2°53.988 33.1 11.5 26 12.1
2007-06-15 07:33:08 51°19.663 2°54 32.5 11.5 26 12.2
2007-06-15 07:33:13 51°19.677 2°54.012 32.8 11.6 28 11.8
2007-06-15 07:33:18 51°19.691 2°54.024 33.5 11.5 28 11.5
2007-06-15 07:33:23 51°19.706 2°54.035 33.8 11.5 26 11.6
2007-06-15 07:33:28 51°19.72 2°54.047 33.1 11.4 27 11.9
2007-06-15 07:33:33 51°19.734 2°54.057 32.7 11.5 25 12.1
2007-06-15 07:33:38 51°19.749 2°54.069 32.1 11.6 26 12.3
2007-06-15 07:33:43 51°19.763 2°54.08 32.3 11.5 26 12.2
2007-06-15 07:33:48 51°19.777 2°54.091 32.7 11.5 26 12.4
2007-06-15 07:33:53 51°19.792 2°54.104 32.6 11.6 28 12.2
2007-06-15 07:33:58 51°19.806 2°54.115 33.6 11.8 26 12.2
2007-06-15 07:34:03 51°19.821 2°54.127 33.2 11.7 28 12
2007-06-15 07:34:08 51°19.836 2°54.138 33.3 11.8 25 12.2
2007-06-15 07:34:13 51°19.85 2°54.15 32.6 11.8 26 12.2
2007-06-15 07:34:18 51°19.865 2°54.161 32.2 11.8 25 12.3
2007-06-15 07:34:23 51°19.879 2°54.173 32.2 11.7 27 12.3
2007-06-15 07:34:28 51°19.894 2°54.184 33 11.7 27 12.4
2007-06-15 07:34:33 51°19.908 2°54.196 33.3 11.7 27 12.3
2007-06-15 07:34:38 51°19.923 2°54.207 33.2 11.6 26 12.3
2007-06-15 07:34:43 51°19.937 2°54.219 32.6 11.5 27 12.4
2007-06-15 07:34:48 51°19.951 2°54.23 32.8 11.6 27 12.4
2007-06-15 07:34:53 51°19.966 2°54.242 32.6 11.5 28 12
2007-06-15 07:34:58 51°19.98 2°54.254 33.6 11.5 28 12.2
2007-06-15 07:35:03 51°19.994 2°54.265 33.6 11.5 26 12
2007-06-15 07:35:08 51°20.008 2°54.277 32.8 11.5 29 12
2007-06-15 07:35:13 51°20.022 2°54.289 33.6 11.5 27 12.2
2007-06-15 07:35:18 51°20.036 2°54.301 33.8 11.6 28 12.1
2007-06-15 07:35:23 51°20.05 2°54.314 33.5 11.6 29 12.6
2007-06-15 07:35:28 51°20.065 2°54.326 34.6 11.6 27 13.2
2007-06-15 07:35:33 51°20.079 2°54.337 33.8 11.6 28 13.3
2007-06-15 07:35:38 51°20.094 2°54.35 33.5 11.7 29 13.2
2007-06-15 07:35:43 51°20.108 2°54.361 34 11.7 27 13.2
2007-06-15 07:35:48 51°20.122 2°54.374 34 11.7 28 13.1
2007-06-15 07:35:53 51°20.137 2°54.386 33.6 11.8 28 13.1
2007-06-15 07:35:58 51°20.152 2°54.398 33.3 11.7 28 13.3
2007-06-15 07:36:03 51°20.166 2°54.41 33.5 11.8 27 13.3
2007-06-15 07:36:08 51°20.181 2°54.421 33.4 11.7 26 13.2
2007-06-15 07:36:13 51°20.195 2°54.433 32.6 11.7 28 13.4
2007-06-15 07:36:18 51°20.209 2°54.445 32.6 11.5 26 13.3
2007-06-15 07:36:23 51°20.223 2°54.456 33.2 11.1 27 13.4
2007-06-15 07:36:28 51°20.236 2°54.467 32.7 10.6 28 13.4
2007-06-15 07:36:33 51°20.248 2°54.478 33.5 10 29 13.5
2007-06-15 07:36:38 51°20.26 2°54.488 34.1 9.5 29 13.7
2007-06-15 07:36:43 51°20.271 2°54.498 34.6 9.1 29 13.8
2007-06-15 07:36:48 51°20.282 2°54.507 34.6 8.9 28 13.7
2007-06-15 07:36:53 51°20.293 2°54.516 34.3 8.7 29 13.6
2007-06-15 07:36:58 51°20.303 2°54.525 34 8.5 29 13.5
2007-06-15 07:37:03 51°20.313 2°54.534 33.5 8.4 28 13.7
2007-06-15 07:37:08 51°20.323 2°54.543 33 8.2 28 13.7
2007-06-15 07:37:13 51°20.333 2°54.55 33 8.1 27 13.8
2007-06-15 07:37:18 51°20.343 2°54.558 32.7 7.9 26 13.9
2007-06-15 07:37:23 51°20.353 2°54.566 32.6 7.9 26 13.9
2007-06-15 07:37:28 51°20.362 2°54.573 32 7.6 27 13.8
2007-06-15 07:37:33 51°20.371 2°54.58 31.9 7.1 24 13.9
2007-06-15 07:37:38 51°20.379 2°54.587 31.8 6.6 28 14
2007-06-15 07:37:43 51°20.387 2°54.592 31.8 6.2 23 14.1
2007-06-15 07:37:48 51°20.395 2°54.597 30.9 5.9 23 14
2007-06-15 07:37:53 51°20.402 2°54.602 29.8 5.5 23 14
2007-06-15 07:37:58 51°20.409 2°54.606 29 5.3 20 14
2007-06-15 07:38:03 51°20.415 2°54.61 28.2 4.9 20 14
2007-06-15 07:38:08 51°20.421 2°54.613 27.1 4.6 19 14.1
2007-06-15 07:38:13 51°20.427 2°54.616 25.8 4.3 17 14.3
2007-06-15 07:38:18 51°20.432 2°54.618 24.9 4.1 15 14.1
2007-06-15 07:38:23 51°20.437 2°54.62 24 3.8 14 14.2
2007-06-15 07:38:28 51°20.442 2°54.621 22.7 3.5 9 14.3
2007-06-15 07:38:33 51°20.446 2°54.623 21.3 3.2 9 14.3
2007-06-15 07:38:38 51°20.451 2°54.623 19.5 3.1 7 14.3
2007-06-15 07:38:43 51°20.454 2°54.624 17.8 2.9 4 14.2
2007-06-15 07:38:48 51°20.458 2°54.624 16 2.7 1 14.3
2007-06-15 07:38:53 51°20.462 2°54.624 14.5 2.5 358 14.3
2007-06-15 07:38:58 51°20.465 2°54.623 13 2.4 357 14.2
2007-06-15 07:39:03 51°20.468 2°54.623 11.1 2.3 353 14.3
2007-06-15 07:39:08 51°20.471 2°54.622 9.8 2.2 350 14.4
2007-06-15 07:39:13 51°20.474 2°54.621 8.1 2.1 349 14.4
2007-06-15 07:39:18 51°20.476 2°54.62 6.7 1.9 344 14.4
2007-06-15 07:39:23 51°20.479 2°54.619 5.3 1.7 340 14.4
2007-06-15 07:39:28 51°20.481 2°54.617 3.8 1.7 336 14.6
2007-06-15 07:39:33 51°20.483 2°54.615 2.6 1.6 334 14.4
2007-06-15 07:39:38 51°20.485 2°54.614 1.2 1.6 334 14.5
2007-06-15 07:39:43 51°20.487 2°54.612 359.6 1.5 331 14.5
2007-06-15 07:39:48 51°20.489 2°54.61 358.4 1.5 328 14.5
2007-06-15 07:39:53 51°20.49 2°54.609 357.1 1.4 324 14.6
2007-06-15 07:39:58 51°20.492 2°54.607 356.2 1.3 318 14.7
2007-06-15 07:40:03 51°20.493 2°54.605 355.1 1.3 324 14.6
2007-06-15 07:40:08 51°20.495 2°54.603 353.8 1.4 317 14.5
2007-06-15 07:40:13 51°20.496 2°54.601 352.9 1.2 316 14.6
2007-06-15 07:40:18 51°20.497 2°54.599 351.8 1.2 317 14.7
2007-06-15 07:40:23 51°20.498 2°54.597 350.8 1.2 313 14.6
2007-06-15 07:40:28 51°20.499 2°54.595 350.3 1.2 316 14.7
2007-06-15 07:40:33 51°20.5 2°54.593 349.3 1.2 308 14.6
2007-06-15 07:40:38 51°20.501 2°54.591 348.5 1.2 303 14.5
2007-06-15 07:40:43 51°20.502 2°54.589 347.2 1.1 305 14.6
2007-06-15 07:40:48 51°20.503 2°54.587 345.8 1.1 302 14.5
2007-06-15 07:40:53 51°20.503 2°54.585 344.3 1 301 14.7
2007-06-15 07:40:58 51°20.504 2°54.584 343.3 1 296 14.6
2007-06-15 07:41:03 51°20.505 2°54.582 342.4 0.9 302 14.5
2007-06-15 07:41:08 51°20.505 2°54.58 340.9 0.9 291 14.6
2007-06-15 07:41:13 51°20.506 2°54.578 340.1 0.9 290 14.6
2007-06-15 07:41:18 51°20.506 2°54.576 339 0.8 295 14.7
2007-06-15 07:41:23 51°20.506 2°54.574 338.2 1 285 14.7
2007-06-15 07:41:28 51°20.507 2°54.572 337.4 0.8 286 14.7
2007-06-15 07:41:33 51°20.507 2°54.57 336 0.9 280 14.7
2007-06-15 07:41:38 51°20.507 2°54.569 335.3 0.9 276 14.7
2007-06-15 07:41:43 51°20.507 2°54.567 334.5 0.7 288 14.8
2007-06-15 07:41:48 51°20.507 2°54.565 333.5 0.8 281 14.8
2007-06-15 07:41:53 51°20.508 2°54.563 333.2 1 276 14.6
2007-06-15 07:41:58 51°20.508 2°54.561 332.5 0.9 282 14.6
2007-06-15 07:42:03 51°20.508 2°54.559 331.6 0.9 282 14.7
2007-06-15 07:42:08 51°20.508 2°54.557 331.6 0.9 295 14.8
2007-06-15 07:42:13 51°20.509 2°54.555 332 1.3 293 14.6
2007-06-15 07:42:18 51°20.51 2°54.552 333.2 1.5 301 14.5
2007-06-15 07:42:23 51°20.512 2°54.549 334.3 1.7 307 14.6
2007-06-15 07:42:28 51°20.513 2°54.546 336 1.8 315 14.6
2007-06-15 07:42:33 51°20.515 2°54.543 339 2 315 14.8
2007-06-15 07:42:38 51°20.518 2°54.54 342.3 2.2 324 14.7
2007-06-15 07:42:43 51°20.521 2°54.537 346 2.6 328 14.8
2007-06-15 07:42:48 51°20.524 2°54.535 349.8 2.6 337 14.8
2007-06-15 07:42:53 51°20.528 2°54.533 354.7 2.8 343 15
2007-06-15 07:42:58 51°20.532 2°54.532 359.3 2.9 352 14.9
2007-06-15 07:43:03 51°20.536 2°54.532 6.2 2.9 358 14.9
2007-06-15 07:43:08 51°20.54 2°54.533 12.3 2.8 9 14.9
2007-06-15 07:43:13 51°20.544 2°54.534 17.4 2.8 13 14.9
2007-06-15 07:43:18 51°20.547 2°54.538 23.9 2.9 27 14.8
2007-06-15 07:43:23 51°20.551 2°54.541 32.2 2.9 38 14.9
2007-06-15 07:43:28 51°20.554 2°54.546 38.9 3.1 42 15
2007-06-15 07:43:33 51°20.557 2°54.552 46.1 3.3 55 14.9
2007-06-15 07:43:38 51°20.559 2°54.559 50.9 3.5 62 14.9
2007-06-15 07:43:43 51°20.561 2°54.566 56.7 3.7 68 15
2007-06-15 07:43:48 51°20.563 2°54.574 63.6 3.8 73 14.9
2007-06-15 07:43:53 51°20.564 2°54.583 68.7 4 78 14.9
2007-06-15 07:43:58 51°20.565 2°54.592 72.7 4.2 81 14.8
2007-06-15 07:44:03 51°20.565 2°54.602 75.8 4.3 85 14.9
2007-06-15 07:44:08 51°20.565 2°54.611 78.6 4.3 89 14.8
2007-06-15 07:44:13 51°20.566 2°54.62 81 4.2 87 14.9
2007-06-15 07:44:18 51°20.565 2°54.63 82.1 4.2 93 15
2007-06-15 07:44:23 51°20.566 2°54.639 84 4.2 89 15
2007-06-15 07:44:28 51°20.565 2°54.648 85.3 4.3 94 14.8
2007-06-15 07:44:33 51°20.564 2°54.658 86.2 4.3 96 14.7
2007-06-15 07:44:38 51°20.564 2°54.667 87 4.3 95 14.8
2007-06-15 07:44:43 51°20.564 2°54.677 87.5 4.3 93 14.8
2007-06-15 07:44:48 51°20.562 2°54.687 88.3 4.4 101 14.5
2007-06-15 07:44:53 51°20.562 2°54.696 88.8 4.4 99 14.6
2007-06-15 07:44:58 51°20.561 2°54.705 89.2 4.3 94 14.5
2007-06-15 07:45:03 51°20.559 2°54.715 89.6 4.4 103 14.4
2007-06-15 07:45:08 51°20.559 2°54.725 90.4 4.3 97 14.4
2007-06-15 07:45:13 51°20.558 2°54.734 90.6 4.2 100 14.5
2007-06-15 07:45:18 51°20.557 2°54.743 91.3 4.2 102 14.5
2007-06-15 07:45:23 51°20.556 2°54.752 92 4 103 14.6
2007-06-15 07:45:28 51°20.554 2°54.76 92.6 3.9 102 14.7
2007-06-15 07:45:33 51°20.553 2°54.768 93.2 3.8 103 14.6
2007-06-15 07:45:38 51°20.551 2°54.776 94 3.7 107 14.6
2007-06-15 07:45:43 51°20.55 2°54.784 95.3 3.6 109 14.6
2007-06-15 07:45:48 51°20.549 2°54.791 96.4 3.5 107 14.6
2007-06-15 07:45:53 51°20.547 2°54.798 97.2 3.5 113 14.5
2007-06-15 07:45:58 51°20.545 2°54.805 98.5 3.4 113 14.5
2007-06-15 07:46:03 51°20.543 2°54.812 99.4 3.3 112 14.4
2007-06-15 07:46:08 51°20.541 2°54.818 100.8 3.2 116 14.4
2007-06-15 07:46:13 51°20.539 2°54.824 102.3 3.1 120 14.4
2007-06-15 07:46:18 51°20.537 2°54.83 103.4 3 119 14.4
2007-06-15 07:46:23 51°20.535 2°54.836 104.4 3 122 14.4
2007-06-15 07:46:28 51°20.533 2°54.841 105.9 2.9 122 14.3
2007-06-15 07:46:33 51°20.53 2°54.846 106.9 3 128 14.3
2007-06-15 07:46:38 51°20.528 2°54.852 108.4 2.8 125 14.4
2007-06-15 07:46:43 51°20.526 2°54.856 109.7 2.7 128 14.3
2007-06-15 07:46:48 51°20.523 2°54.861 111 2.7 132 14.2
2007-06-15 07:46:53 51°20.52 2°54.865 113.1 2.7 136 14.2
2007-06-15 07:46:58 51°20.518 2°54.87 114.1 2.6 131 14.3
2007-06-15 07:47:03 51°20.516 2°54.874 115.1 2.6 135 14.1
2007-06-15 07:47:08 51°20.513 2°54.878 116.6 2.7 141 14.1
2007-06-15 07:47:13 51°20.511 2°54.882 117.3 2.5 130 14.2
2007-06-15 07:47:18 51°20.508 2°54.885 117.5 2.6 143 14.1
2007-06-15 07:47:23 51°20.505 2°54.889 118.7 2.5 135 14.1
2007-06-15 07:47:28 51°20.503 2°54.893 119 2.5 140 14.2
2007-06-15 07:47:33 51°20.5 2°54.896 119.6 2.4 139 14.1
2007-06-15 07:47:38 51°20.498 2°54.9 120.7 2.5 139 14
2007-06-15 07:47:43 51°20.495 2°54.903 120.7 2.4 138 14
2007-06-15 07:47:48 51°20.492 2°54.907 120.5 2.6 143 14
2007-06-15 07:47:53 51°20.49 2°54.911 119.4 2.5 134 14.1
2007-06-15 07:47:58 51°20.487 2°54.915 117.3 2.5 131 14
2007-06-15 07:48:03 51°20.485 2°54.919 115.9 2.6 136 13.9
2007-06-15 07:48:08 51°20.483 2°54.924 113.3 2.5 126 13.9
2007-06-15 07:48:13 51°20.481 2°54.929 110.5 2.5 125 13.9
2007-06-15 07:48:18 51°20.479 2°54.933 107.4 2.5 116 13.8
2007-06-15 07:48:23 51°20.478 2°54.938 103.6 2.6 121 13.8
2007-06-15 07:48:28 51°20.477 2°54.944 99.8 2.6 113 13.8
2007-06-15 07:48:33 51°20.476 2°54.949 94.6 2.5 104 14
2007-06-15 07:48:38 51°20.475 2°54.954 91.4 2.5 98 13.8
2007-06-15 07:48:43 51°20.475 2°54.96 86.3 2.6 94 13.8
2007-06-15 07:48:48 51°20.475 2°54.966 80.8 2.5 85 13.8
2007-06-15 07:48:53 51°20.476 2°54.971 75.2 2.5 76 13.9
2007-06-15 07:48:58 51°20.477 2°54.976 69.6 2.5 71 13.8
2007-06-15 07:49:03 51°20.479 2°54.98 63.8 2.4 58 13.8
2007-06-15 07:49:08 51°20.481 2°54.985 58 2.4 56 13.8
2007-06-15 07:49:13 51°20.484 2°54.988 52.4 2.5 42 13.7
2007-06-15 07:49:18 51°20.487 2°54.992 46.4 2.6 40 13.8
2007-06-15 07:49:23 51°20.49 2°54.995 41.2 2.8 31 13.8
2007-06-15 07:49:28 51°20.493 2°54.999 37.6 2.9 33 13.8
2007-06-15 07:49:33 51°20.497 2°55.002 35.2 3.1 30 13.7
2007-06-15 07:49:38 51°20.501 2°55.005 33.6 3.2 28 13.7
2007-06-15 07:49:43 51°20.505 2°55.008 32.6 3.3 27 13.7
2007-06-15 07:49:48 51°20.509 2°55.011 31.6 3.3 24 13.8
2007-06-15 07:49:53 51°20.514 2°55.014 30.5 3.4 21 13.9
2007-06-15 07:49:58 51°20.518 2°55.017 29.6 3.6 26 13.8
2007-06-15 07:50:03 51°20.523 2°55.02 29 3.7 23 13.8
2007-06-15 07:50:08 51°20.527 2°55.024 29.2 3.7 24 13.9
2007-06-15 07:50:13 51°20.532 2°55.027 29.6 3.7 24 13.9
2007-06-15 07:50:18 51°20.537 2°55.031 29.7 3.8 25 13.9
2007-06-15 07:50:23 51°20.542 2°55.034 30.3 3.8 27 13.9
2007-06-15 07:50:28 51°20.546 2°55.038 31.2 3.7 27 13.9
2007-06-15 07:50:33 51°20.551 2°55.041 32.6 3.6 27 14.1
2007-06-15 07:50:38 51°20.555 2°55.046 33.9 3.7 30 14.1
2007-06-15 07:50:43 51°20.559 2°55.05 35 3.7 34 13.8
2007-06-15 07:50:48 51°20.563 2°55.055 36.9 3.6 36 13.7
2007-06-15 07:50:53 51°20.567 2°55.06 38.8 3.5 38 13.8
2007-06-15 07:50:58 51°20.571 2°55.065 40.6 3.5 42 13.8
2007-06-15 07:51:03 51°20.574 2°55.07 42.6 3.5 44 13.9
2007-06-15 07:51:08 51°20.578 2°55.076 44.4 3.5 46 14
2007-06-15 07:51:13 51°20.581 2°55.081 46.7 3.5 46 14.1
2007-06-15 07:51:18 51°20.584 2°55.087 49.3 3.4 49 14.1
2007-06-15 07:51:23 51°20.587 2°55.093 50.8 3.4 54 14.1
2007-06-15 07:51:28 51°20.589 2°55.099 52.2 3.5 56 14.1
2007-06-15 07:51:33 51°20.592 2°55.106 53.6 3.4 58 14.1
2007-06-15 07:51:38 51°20.595 2°55.112 55.5 3.4 55 14.2
2007-06-15 07:51:43 51°20.597 2°55.119 56.6 3.4 58 14
2007-06-15 07:51:48 51°20.6 2°55.125 56.6 3.5 59 13.8
2007-06-15 07:51:53 51°20.602 2°55.132 56.7 3.5 58 13.7
2007-06-15 07:51:58 51°20.605 2°55.138 55.8 3.4 56 13.8
2007-06-15 07:52:03 51°20.608 2°55.143 54.2 3.3 48 13.9
2007-06-15 07:52:08 51°20.611 2°55.149 51.8 3.2 50 14
2007-06-15 07:52:13 51°20.614 2°55.154 48.6 3.2 43 14.1
2007-06-15 07:52:18 51°20.618 2°55.159 45.8 3.3 44 13.9
2007-06-15 07:52:23 51°20.621 2°55.164 43.7 3.3 42 14
2007-06-15 07:52:28 51°20.624 2°55.168 42.4 3.2 39 14
2007-06-15 07:52:33 51°20.628 2°55.172 41.3 3.1 37 14.1
2007-06-15 07:52:38 51°20.631 2°55.177 40.8 3.2 40 14.1
2007-06-15 07:52:43 51°20.635 2°55.181 40.5 3.1 36 14.2
2007-06-15 07:52:48 51°20.638 2°55.186 39.9 3.2 36 14.1
2007-06-15 07:52:53 51°20.642 2°55.191 40.3 3.2 40 14
2007-06-15 07:52:58 51°20.645 2°55.195 40.2 3.2 39 14
2007-06-15 07:53:03 51°20.649 2°55.2 40.7 3.2 41 13.9
2007-06-15 07:53:08 51°20.652 2°55.204 41.7 3.3 40 13.9
2007-06-15 07:53:13 51°20.655 2°55.21 42.8 3.3 43 14
2007-06-15 07:53:18 51°20.659 2°55.215 44.2 3.4 47 14
2007-06-15 07:53:23 51°20.662 2°55.22 45.3 3.3 48 14.1
2007-06-15 07:53:28 51°20.665 2°55.225 46.8 3.3 48 14.2
2007-06-15 07:53:33 51°20.668 2°55.231 48.6 3.3 51 14
2007-06-15 07:53:38 51°20.671 2°55.237 49.8 3.3 52 14
2007-06-15 07:53:43 51°20.673 2°55.242 51.3 3.3 51 14.1
2007-06-15 07:53:48 51°20.676 2°55.249 52.5 3.4 55 14
2007-06-15 07:53:53 51°20.679 2°55.255 53 3.4 56 13.8
2007-06-15 07:53:58 51°20.681 2°55.261 53.7 3.3 55 14
2007-06-15 07:54:03 51°20.684 2°55.267 53.9 3.3 53 14.1
2007-06-15 07:54:08 51°20.686 2°55.273 53.8 3.3 57 14
2007-06-15 07:54:13 51°20.689 2°55.279 54.1 3.3 58 14.1
2007-06-15 07:54:18 51°20.691 2°55.285 54.4 3.3 56 14.2
2007-06-15 07:54:23 51°20.694 2°55.292 55 3.4 59 14.1
2007-06-15 07:54:28 51°20.697 2°55.298 55.3 3.4 58 14.1
2007-06-15 07:54:33 51°20.699 2°55.304 55.5 3.3 56 14.1
2007-06-15 07:54:38 51°20.701 2°55.311 55.8 3.4 61 14.1
2007-06-15 07:54:43 51°20.704 2°55.317 56.1 3.4 58 14.2
2007-06-15 07:54:48 51°20.706 2°55.324 56.4 3.4 56 14.2
2007-06-15 07:54:53 51°20.709 2°55.33 56.4 3.4 60 14.1
2007-06-15 07:54:58 51°20.711 2°55.337 57.1 3.5 61 13.9
2007-06-15 07:55:03 51°20.713 2°55.343 57.3 3.4 63 14
2007-06-15 07:55:08 51°20.716 2°55.35 57.5 3.4 57 14.1
2007-06-15 07:55:13 51°20.718 2°55.356 57.2 3.4 59 14
2007-06-15 07:55:18 51°20.721 2°55.362 56.5 3.4 59 14.1
2007-06-15 07:55:23 51°20.723 2°55.369 56.1 3.4 57 14.1
2007-06-15 07:55:28 51°20.725 2°55.376 55.7 3.4 60 14
2007-06-15 07:55:33 51°20.728 2°55.382 55.1 3.4 56 14
2007-06-15 07:55:38 51°20.731 2°55.388 54.5 3.4 55 14.1
2007-06-15 07:55:43 51°20.734 2°55.394 54.2 3.4 53 14.1
2007-06-15 07:55:48 51°20.736 2°55.401 53.6 3.5 57 14.1
2007-06-15 07:55:53 51°20.739 2°55.407 53.2 3.4 53 13.9
2007-06-15 07:55:58 51°20.742 2°55.413 52.5 3.4 57 13.9
2007-06-15 07:56:03 51°20.745 2°55.418 52.2 3.3 49 14.1
2007-06-15 07:56:08 51°20.747 2°55.425 51.7 3.3 53 13.9
2007-06-15 07:56:13 51°20.75 2°55.43 51 3.4 50 14
2007-06-15 07:56:18 51°20.753 2°55.436 50.5 3.3 49 14
2007-06-15 07:56:23 51°20.756 2°55.441 49.3 3.3 49 14
2007-06-15 07:56:28 51°20.76 2°55.447 48.6 3.3 46 14.1
2007-06-15 07:56:33 51°20.763 2°55.452 47.6 3.3 49 14
2007-06-15 07:56:38 51°20.766 2°55.458 46.5 3.3 49 14
2007-06-15 07:56:43 51°20.769 2°55.463 46.5 3.3 44 14
2007-06-15 07:56:48 51°20.772 2°55.468 46.4 3.3 46 13.9
2007-06-15 07:56:53 51°20.775 2°55.473 46.2 3.3 48 13.9
2007-06-15 07:56:58 51°20.778 2°55.479 46.2 3.3 45 14.1
2007-06-15 07:57:03 51°20.781 2°55.484 46.8 3.3 49 14.1
2007-06-15 07:57:08 51°20.784 2°55.49 47.7 3.4 53 13.9
2007-06-15 07:57:13 51°20.787 2°55.496 48.2 3.4 51 13.9
2007-06-15 07:57:18 51°20.79 2°55.501 50 3.3 53 14
2007-06-15 07:57:23 51°20.793 2°55.507 51.3 3.3 53 14.1
2007-06-15 07:57:28 51°20.795 2°55.514 52.4 3.3 58 13.9
2007-06-15 07:57:33 51°20.798 2°55.52 54.2 3.4 61 14.1
2007-06-15 07:57:38 51°20.801 2°55.526 55.5 3.4 55 14
2007-06-15 07:57:43 51°20.803 2°55.533 57.2 3.4 64 14
2007-06-15 07:57:48 51°20.805 2°55.54 58.4 3.4 64 14.1
2007-06-15 07:57:53 51°20.807 2°55.547 60.9 3.4 67 14
2007-06-15 07:57:58 51°20.808 2°55.554 62.6 3.5 69 14
2007-06-15 07:58:03 51°20.81 2°55.561 63.9 3.6 74 14.1
2007-06-15 07:58:08 51°20.811 2°55.569 65.1 3.5 74 14
2007-06-15 07:58:13 51°20.813 2°55.576 66.4 3.5 73 14.1
2007-06-15 07:58:18 51°20.814 2°55.583 67.9 3.5 71 14.1
2007-06-15 07:58:23 51°20.815 2°55.591 68.9 3.6 79 13.9
2007-06-15 07:58:28 51°20.817 2°55.598 69.4 3.5 75 13.9
2007-06-15 07:58:33 51°20.818 2°55.606 69.9 3.5 77 13.9
2007-06-15 07:58:38 51°20.819 2°55.614 70.4 3.5 79 14
2007-06-15 07:58:43 51°20.82 2°55.621 70.4 3.5 73 14.1
2007-06-15 07:58:48 51°20.821 2°55.629 70.1 3.5 77 14
2007-06-15 07:58:53 51°20.823 2°55.636 69.6 3.5 73 14
2007-06-15 07:58:58 51°20.824 2°55.643 68.8 3.5 75 14.1
2007-06-15 07:59:03 51°20.826 2°55.65 67.8 3.4 70 14.1
2007-06-15 07:59:08 51°20.827 2°55.658 66.9 3.4 70 14
2007-06-15 07:59:13 51°20.828 2°55.665 66 3.4 71 13.9
2007-06-15 07:59:18 51°20.83 2°55.672 65.1 3.4 68 13.8
2007-06-15 07:59:23 51°20.832 2°55.679 64.1 3.4 70 13.8
2007-06-15 07:59:28 51°20.834 2°55.686 63 3.3 66 13.9
2007-06-15 07:59:33 51°20.835 2°55.692 62.3 3.3 64 13.9
2007-06-15 07:59:38 51°20.837 2°55.699 61 3.3 67 13.8
2007-06-15 07:59:43 51°20.839 2°55.706 60.1 3.3 63 13.7
2007-06-15 07:59:48 51°20.841 2°55.712 59.2 3.2 63 13.8
2007-06-15 07:59:53 51°20.844 2°55.718 58 3.1 60 13.9
2007-06-15 07:59:58 51°20.846 2°55.724 57.1 3.1 56 14
2007-06-15 08:00:03 51°20.848 2°55.73 55.8 3.1 59 13.8
2007-06-15 08:00:08 51°20.851 2°55.736 54.2 3.1 57 13.9
2007-06-15 08:00:13 51°20.853 2°55.741 52.9 3.1 52 14
2007-06-15 08:00:18 51°20.856 2°55.747 52 3.2 52 13.8
2007-06-15 08:00:23 51°20.859 2°55.752 50.7 3.1 50 13.7
2007-06-15 08:00:28 51°20.861 2°55.757 49.5 3.1 51 13.7
2007-06-15 08:00:33 51°20.864 2°55.762 48.6 3.1 49 13.8
2007-06-15 08:00:38 51°20.867 2°55.767 46.9 3 43 13.9
2007-06-15 08:00:43 51°20.87 2°55.772 45.8 3 47 13.9
2007-06-15 08:00:48 51°20.873 2°55.776 44.6 3.1 43 13.9
2007-06-15 08:00:53 51°20.876 2°55.782 44.4 3.1 48 13.7
2007-06-15 08:00:58 51°20.879 2°55.786 45.2 3.1 50 13.8
2007-06-15 08:01:03 51°20.882 2°55.791 46.8 3.1 49 14
2007-06-15 08:01:08 51°20.884 2°55.797 48.6 3.1 56 13.9
2007-06-15 08:01:13 51°20.886 2°55.803 50.1 3.1 57 13.8
2007-06-15 08:01:18 51°20.889 2°55.808 52.6 3 53 14
2007-06-15 08:01:23 51°20.891 2°55.814 55 3.1 63 14
2007-06-15 08:01:28 51°20.893 2°55.82 56.6 3.1 57 13.9
2007-06-15 08:01:33 51°20.895 2°55.826 57.5 3.1 63 13.9
2007-06-15 08:01:38 51°20.897 2°55.832 58 3.1 58 14
2007-06-15 08:01:43 51°20.899 2°55.838 58.2 3.1 60 14
2007-06-15 08:01:48 51°20.901 2°55.845 58.2 3.2 61 13.9
2007-06-15 08:01:53 51°20.904 2°55.851 57.3 3.2 60 13.8
2007-06-15 08:01:58 51°20.905 2°55.856 56.8 3 62 13.9
2007-06-15 08:02:03 51°20.908 2°55.862 56.8 3 62 14
2007-06-15 08:02:08 51°20.91 2°55.868 56.5 3 59 13.8
2007-06-15 08:02:13 51°20.912 2°55.874 56 3.1 61 13.7
2007-06-15 08:02:18 51°20.914 2°55.88 56.1 3.1 59 13.8
2007-06-15 08:02:23 51°20.916 2°55.886 55.9 3.1 58 13.8
2007-06-15 08:02:28 51°20.918 2°55.892 55.9 3.1 65 13.7
2007-06-15 08:02:33 51°20.921 2°55.897 55.8 3.1 57 13.8
2007-06-15 08:02:38 51°20.923 2°55.903 55.7 3.1 57 13.9
2007-06-15 08:02:43 51°20.925 2°55.909 55.6 3.1 59 13.9
2007-06-15 08:02:48 51°20.928 2°55.915 55 3.1 58 14
2007-06-15 08:02:53 51°20.93 2°55.921 55.1 3.1 58 14
2007-06-15 08:02:58 51°20.932 2°55.927 55.1 3.1 62 13.8
2007-06-15 08:03:03 51°20.934 2°55.933 55.5 3.2 57 14
2007-06-15 08:03:08 51°20.936 2°55.939 55.5 3.2 61 13.9
2007-06-15 08:03:13 51°20.939 2°55.944 55.8 3.1 57 14
2007-06-15 08:03:18 51°20.941 2°55.951 56.1 3.2 62 14
2007-06-15 08:03:23 51°20.943 2°55.957 56.5 3.2 59 13.9
2007-06-15 08:03:28 51°20.945 2°55.963 56.6 3.2 62 13.8
2007-06-15 08:03:33 51°20.947 2°55.969 56.6 3.1 58 13.8
2007-06-15 08:03:38 51°20.949 2°55.975 56.4 3.1 62 13.9
2007-06-15 08:03:43 51°20.952 2°55.981 56.4 3.1 57 14
2007-06-15 08:03:48 51°20.954 2°55.987 56.1 3.2 62 13.9
2007-06-15 08:03:53 51°20.956 2°55.993 55.8 3.1 55 13.8
2007-06-15 08:03:58 51°20.959 2°55.999 56.3 3.1 58 13.9
2007-06-15 08:04:03 51°20.961 2°56.005 56.1 3.1 55 13.8
2007-06-15 08:04:08 51°20.963 2°56.011 55.8 3.2 61 13.7
2007-06-15 08:04:13 51°20.965 2°56.017 55.9 3.2 63 13.6
2007-06-15 08:04:18 51°20.967 2°56.023 56.7 3.1 58 13.8
2007-06-15 08:04:23 51°20.97 2°56.029 56.8 3.2 60 13.9
2007-06-15 08:04:28 51°20.972 2°56.035 56.6 3.2 59 13.8
2007-06-15 08:04:33 51°20.974 2°56.042 56.9 3.2 63 13.8
2007-06-15 08:04:38 51°20.976 2°56.048 57.1 3.2 61 13.8
2007-06-15 08:04:43 51°20.978 2°56.054 57.3 3.2 62 13.8
2007-06-15 08:04:48 51°20.981 2°56.06 57.8 3.2 58 13.9
2007-06-15 08:04:53 51°20.983 2°56.066 57.6 3.2 61 13.7
2007-06-15 08:04:58 51°20.985 2°56.073 57.6 3.2 60 13.7
2007-06-15 08:05:03 51°20.987 2°56.079 57.9 3.2 64 13.9
2007-06-15 08:05:08 51°20.989 2°56.085 58.1 3.2 63 13.9
2007-06-15 08:05:13 51°20.991 2°56.091 58.7 3.2 64 13.9
2007-06-15 08:05:18 51°20.993 2°56.098 59.1 3.1 63 13.9
2007-06-15 08:05:23 51°20.995 2°56.104 59.1 3.2 65 13.9
2007-06-15 08:05:28 51°20.997 2°56.111 59.5 3.3 66 13.7
2007-06-15 08:05:33 51°20.999 2°56.117 59.8 3.3 66 13.6
2007-06-15 08:05:38 51°21 2°56.123 60.5 3.2 67 13.7
2007-06-15 08:05:43 51°21.003 2°56.13 60.7 3.2 65 13.8
2007-06-15 08:05:48 51°21.004 2°56.136 60.7 3.1 62 13.8
2007-06-15 08:05:53 51°21.006 2°56.143 60.7 3.2 67 13.8
2007-06-15 08:05:58 51°21.008 2°56.149 60.3 3.2 62 13.8
2007-06-15 08:06:03 51°21.01 2°56.156 60.2 3.2 63 13.8
2007-06-15 08:06:08 51°21.012 2°56.162 60 3.2 65 13.8
2007-06-15 08:06:13 51°21.014 2°56.168 59.6 3.2 64 13.7
2007-06-15 08:06:18 51°21.016 2°56.174 59.5 3.2 61 13.8
2007-06-15 08:06:23 51°21.018 2°56.18 58.9 3.2 63 13.7
2007-06-15 08:06:28 51°21.02 2°56.186 58.5 3.2 60 13.8
2007-06-15 08:06:33 51°21.023 2°56.193 57.8 3.2 62 13.7
2007-06-15 08:06:38 51°21.025 2°56.199 57.3 3.2 61 13.7
2007-06-15 08:06:43 51°21.027 2°56.205 56.7 3.2 58 13.7
2007-06-15 08:06:48 51°21.029 2°56.211 56 3.2 61 13.6
2007-06-15 08:06:53 51°21.032 2°56.216 55.8 3.1 54 13.8
2007-06-15 08:06:58 51°21.034 2°56.222 55.1 3.1 59 13.8
2007-06-15 08:07:03 51°21.036 2°56.228 54.8 3.1 58 13.8
2007-06-15 08:07:08 51°21.039 2°56.234 54.1 3.1 57 13.7
2007-06-15 08:07:13 51°21.041 2°56.239 53.7 3.1 54 13.7
2007-06-15 08:07:18 51°21.043 2°56.245 53.4 3.1 58 13.7
2007-06-15 08:07:23 51°21.046 2°56.251 53 3.1 57 13.7
2007-06-15 08:07:28 51°21.049 2°56.256 53.1 3.1 50 13.8
2007-06-15 08:07:33 51°21.051 2°56.262 53.2 3.2 60 13.7
2007-06-15 08:07:38 51°21.054 2°56.268 53.2 3.1 53 13.7
2007-06-15 08:07:43 51°21.056 2°56.274 53.4 3.2 58 13.7
2007-06-15 08:07:48 51°21.059 2°56.279 53.7 3.2 56 13.8
2007-06-15 08:07:53 51°21.061 2°56.285 53.7 3.2 53 13.8
2007-06-15 08:07:58 51°21.063 2°56.291 54.2 3.2 58 13.8
2007-06-15 08:08:03 51°21.066 2°56.297 54.4 3.2 54 13.8
2007-06-15 08:08:08 51°21.068 2°56.303 54.5 3.2 59 13.7
2007-06-15 08:08:13 51°21.071 2°56.308 55 3.1 57 13.7
2007-06-15 08:08:18 51°21.073 2°56.314 55.1 3.2 54 13.7
2007-06-15 08:08:23 51°21.075 2°56.321 55.2 3.2 60 13.6
2007-06-15 08:08:28 51°21.078 2°56.326 55.3 3.2 58 13.6
2007-06-15 08:08:33 51°21.081 2°56.332 55.9 3.1 56 13.7
2007-06-15 08:08:38 51°21.083 2°56.338 56.1 3.2 58 13.7
2007-06-15 08:08:43 51°21.085 2°56.345 56.4 3.2 60 13.6
2007-06-15 08:08:48 51°21.087 2°56.351 57 3.2 65 13.6
2007-06-15 08:08:53 51°21.089 2°56.357 57.7 3.1 57 13.8
2007-06-15 08:08:58 51°21.091 2°56.363 58.4 3.2 67 13.6
2007-06-15 08:09:03 51°21.093 2°56.369 58.8 3.2 64 13.7
2007-06-15 08:09:08 51°21.095 2°56.376 59.2 3.2 63 13.9
2007-06-15 08:09:13 51°21.097 2°56.382 59.4 3.1 62 13.7
2007-06-15 08:09:18 51°21.099 2°56.388 59.4 3.1 62 13.8
2007-06-15 08:09:23 51°21.101 2°56.394 59.6 3.2 60 13.8
2007-06-15 08:09:28 51°21.103 2°56.401 59.3 3.3 66 13.5
2007-06-15 08:09:33 51°21.105 2°56.407 58.7 3.2 61 13.7
2007-06-15 08:09:38 51°21.107 2°56.413 59 3.1 62 13.7
2007-06-15 08:09:43 51°21.109 2°56.419 58.8 3.2 60 13.7
2007-06-15 08:09:48 51°21.112 2°56.426 58.7 3.2 58 13.7
2007-06-15 08:09:53 51°21.114 2°56.432 58 3.2 63 13.5
2007-06-15 08:09:58 51°21.116 2°56.437 57.7 3.1 58 13.6
2007-06-15 08:10:03 51°21.118 2°56.444 57.4 3.1 59 13.6
2007-06-15 08:10:08 51°21.12 2°56.449 57 3.1 56 13.7
2007-06-15 08:10:13 51°21.122 2°56.455 55.9 3.1 59 13.8
2007-06-15 08:10:18 51°21.125 2°56.461 56 3.1 55 13.9
2007-06-15 08:10:23 51°21.127 2°56.467 55.4 3.1 56 13.8
2007-06-15 08:10:28 51°21.13 2°56.472 54.8 3.1 54 13.7
2007-06-15 08:10:33 51°21.132 2°56.478 54.7 3.1 57 13.7
2007-06-15 08:10:38 51°21.135 2°56.483 54.4 3.1 52 13.8
2007-06-15 08:10:43 51°21.137 2°56.489 54.1 3.1 59 13.8
2007-06-15 08:10:48 51°21.14 2°56.495 54.2 3.1 55 13.8
2007-06-15 08:10:53 51°21.142 2°56.5 54 3 52 13.9
2007-06-15 08:10:58 51°21.144 2°56.506 54 3.1 58 13.7
2007-06-15 08:11:03 51°21.147 2°56.511 53.5 3.1 56 13.7
2007-06-15 08:11:08 51°21.15 2°56.517 53.3 3 51 13.6
2007-06-15 08:11:13 51°21.152 2°56.523 53.4 3 59 13.7
2007-06-15 08:11:18 51°21.155 2°56.528 53 3 47 13.9
2007-06-15 08:11:23 51°21.157 2°56.534 52.8 3.1 52 13.7
2007-06-15 08:11:28 51°21.159 2°56.539 52.1 3.2 56 13.5
2007-06-15 08:11:33 51°21.162 2°56.544 51.5 3.1 56 13.5
2007-06-15 08:11:38 51°21.165 2°56.549 51.4 2.9 47 13.7
2007-06-15 08:11:43 51°21.168 2°56.554 51.1 2.9 49 13.6
2007-06-15 08:11:48 51°21.17 2°56.56 50 3 51 13.6
2007-06-15 08:11:53 51°21.173 2°56.564 48.9 3 45 13.8
2007-06-15 08:11:58 51°21.176 2°56.57 48.5 3.1 47 13.8
2007-06-15 08:12:03 51°21.179 2°56.575 47.9 3.1 50 13.8
2007-06-15 08:12:08 51°21.182 2°56.579 47.6 3 42 13.9
2007-06-15 08:12:13 51°21.185 2°56.584 47.9 3 47 14
2007-06-15 08:12:18 51°21.188 2°56.589 47.8 3 45 14
2007-06-15 08:12:23 51°21.191 2°56.594 47.8 3 48 13.9
2007-06-15 08:12:28 51°21.194 2°56.599 48 3 45 13.9
2007-06-15 08:12:33 51°21.196 2°56.604 48.1 3.1 47 13.8
2007-06-15 08:12:38 51°21.199 2°56.609 48.5 3.1 50 13.6
2007-06-15 08:12:43 51°21.202 2°56.614 48.6 3 51 13.7
2007-06-15 08:12:48 51°21.204 2°56.619 49.5 2.9 47 13.8
2007-06-15 08:12:53 51°21.207 2°56.624 50.7 3 50 13.8
2007-06-15 08:12:58 51°21.209 2°56.629 50.9 3.1 55 13.7
2007-06-15 08:13:03 51°21.212 2°56.635 52 3 52 13.7
2007-06-15 08:13:08 51°21.214 2°56.64 53.2 3 58 13.8
2007-06-15 08:13:13 51°21.217 2°56.645 54.2 3 52 14
2007-06-15 08:13:18 51°21.219 2°56.651 55.7 3 59 13.9
2007-06-15 08:13:23 51°21.221 2°56.657 57 3.1 59 13.9
2007-06-15 08:13:28 51°21.223 2°56.663 58.4 3.1 64 13.8
2007-06-15 08:13:33 51°21.225 2°56.669 59.7 3.1 68 13.6
2007-06-15 08:13:38 51°21.226 2°56.675 61.5 3 65 13.7
2007-06-15 08:13:43 51°21.228 2°56.682 63.1 3.1 73 13.6
2007-06-15 08:13:48 51°21.229 2°56.688 64.7 3 68 13.7
2007-06-15 08:13:53 51°21.23 2°56.695 66.1 3.2 76 13.7
2007-06-15 08:13:58 51°21.231 2°56.702 67.4 3.1 76 13.7
2007-06-15 08:14:03 51°21.232 2°56.708 68.6 3.1 75 13.8
2007-06-15 08:14:08 51°21.233 2°56.715 69.7 3.1 79 13.7
2007-06-15 08:14:13 51°21.234 2°56.722 70.4 3.1 78 13.7
2007-06-15 08:14:18 51°21.235 2°56.729 70.7 3.2 79 13.7
2007-06-15 08:14:23 51°21.236 2°56.735 70.7 3.1 78 13.8
2007-06-15 08:14:28 51°21.237 2°56.742 70.9 3.1 75 13.8
2007-06-15 08:14:33 51°21.238 2°56.749 70.7 3.1 75 13.7
2007-06-15 08:14:38 51°21.239 2°56.756 70 3.2 80 13.6
2007-06-15 08:14:43 51°21.24 2°56.762 70 3.2 77 13.7
2007-06-15 08:14:48 51°21.241 2°56.769 69.8 3.1 76 13.6